Hlavní strana
METAR-TAF:

METAR-TAF

Letiště :

Downtown_Memorial_Airport

Spartanburg, Jižní Karolína, Spojené státy americké

zeměpisná šířka: 34-55N, zeměpisná délka: 081-57W, výška: 246 m

Aktuální stav počasí

Zpráva byla vytvořena před 8 minutami, v 10:55 UTC
Západojihozápadní vítr 4 kt
Teplota 20°C
Vlhkost vzduchu 94%
Tlak 1021 hPa
Viditelnost: 16.1 km
Jasno

METAR: KSPA 241055Z AUTO 25004KT 10SM CLR 20/19 A3014 RMK AO2

Čas: 07:03 (11:03 UTC)


TAF: chybějící

Stav a předpovědi počasí z více než 4 000 letišť (zprávy METAR a TAF).

Červené a žluté tečky na mapě představují dostupné meteorologické stanice.

Když kurzor umístíte na tečku, zobrazí se název stanice.

Pak kliknutím zobrazíte stav a předpověď počasí.

Chcete-li změnit mapu, kliknutím na zelené tlačítko se znaménkem +mapu přiblížíte, kliknutím na zelené tlačítko se znaménkem – mapu oddálíte a kliknutím na zelené šipky přejdete na sousední mapy.


METAR-TAF: